Terminal Aerodrome Forecast
Issued by NWS Charleston, WV

Current Version | Previous Version | Graphics & Text | Print | Product List | Glossary On
Versions: 1 2 3 4 5 6 7 8 9 10 11 12 13 14 15 16 17 18 19 20 21
000
FTUS41 KRLX 102300
TAFEKN
TAF
KEKN 102339Z 1100/1124 31006KT P6SM SKC
     FM110100 VRB03KT P6SM SKC
     FM110400 00000KT 4SM BR SKC
      TEMPO 1104/1106 2SM BR SCT001
     FM110600 00000KT 1/2SM FG BKN001
     FM111200 00000KT 2SM BR FEW002
     FM111300 00000KT P6SM SKC
     FM111500 VRB03KT P6SM SCT050=

USA.gov is the U.S. government's official web portal to all federal, state and local government web resources and services.